sensor_id;sensor_type;location;lat;lon;timestamp;P1;P2;P0
62631;PMS5003;48703;51.248;-0.546;2022-10-17T00:02:34;6.31;5.80;
62631;PMS5003;48703;51.248;-0.546;2022-10-17T00:05:37;8.84;7.00;
62631;PMS5003;48703;51.248;-0.546;2022-10-17T00:08:37;6.01;5.54;
62631;PMS5003;48703;51.248;-0.546;2022-10-17T00:11:38;6.04;5.13;
62631;PMS5003;48703;51.248;-0.546;2022-10-17T00:14:40;5.21;4.76;
62631;PMS5003;48703;51.248;-0.546;2022-10-17T00:17:41;5.54;4.94;
62631;PMS5003;48703;51.248;-0.546;2022-10-17T00:20:43;6.53;5.90;
62631;PMS5003;48703;51.248;-0.546;2022-10-17T00:23:44;5.94;5.33;
62631;PMS5003;48703;51.248;-0.546;2022-10-17T00:26:45;5.66;4.76;
62631;PMS5003;48703;51.248;-0.546;2022-10-17T00:29:47;6.01;5.93;
62631;PMS5003;48703;51.248;-0.546;2022-10-17T00:32:48;4.90;4.79;
62631;PMS5003;48703;51.248;-0.546;2022-10-17T00:35:50;6.89;5.73;
62631;PMS5003;48703;51.248;-0.546;2022-10-17T00:38:52;6.73;5.64;
62631;PMS5003;48703;51.248;-0.546;2022-10-17T00:41:52;5.77;5.30;
62631;PMS5003;48703;51.248;-0.546;2022-10-17T00:44:59;5.21;4.49;
62631;PMS5003;48703;51.248;-0.546;2022-10-17T00:47:57;4.49;4.06;
62631;PMS5003;48703;51.248;-0.546;2022-10-17T00:50:57;5.21;4.64;
62631;PMS5003;48703;51.248;-0.546;2022-10-17T00:53:58;4.97;4.30;
62631;PMS5003;48703;51.248;-0.546;2022-10-17T00:57:00;5.90;5.01;
62631;PMS5003;48703;51.248;-0.546;2022-10-17T01:00:05;5.24;4.56;
62631;PMS5003;48703;51.248;-0.546;2022-10-17T01:03:03;6.03;5.43;
62631;PMS5003;48703;51.248;-0.546;2022-10-17T01:06:04;5.29;4.30;
62631;PMS5003;48703;51.248;-0.546;2022-10-17T01:09:06;5.67;5.27;
62631;PMS5003;48703;51.248;-0.546;2022-10-17T01:12:10;5.81;5.14;
62631;PMS5003;48703;51.248;-0.546;2022-10-17T01:14:17;7.67;6.68;
62631;PMS5003;48703;51.248;-0.546;2022-10-17T01:17:10;5.17;4.26;
62631;PMS5003;48703;51.248;-0.546;2022-10-17T01:20:21;5.81;5.69;
62631;PMS5003;48703;51.248;-0.546;2022-10-17T01:23:17;4.96;4.86;
62631;PMS5003;48703;51.248;-0.546;2022-10-17T01:26:15;6.23;5.16;
62631;PMS5003;48703;51.248;-0.546;2022-10-17T01:30:24;6.30;4.49;
62631;PMS5003;48703;51.248;-0.546;2022-10-17T01:32:17;5.86;5.20;
62631;PMS5003;48703;51.248;-0.546;2022-10-17T01:35:19;4.94;4.47;
62631;PMS5003;48703;51.248;-0.546;2022-10-17T01:38:20;6.01;4.99;
62631;PMS5003;48703;51.248;-0.546;2022-10-17T01:41:24;4.30;4.03;
62631;PMS5003;48703;51.248;-0.546;2022-10-17T01:44:25;4.40;4.40;
62631;PMS5003;48703;51.248;-0.546;2022-10-17T01:47:25;6.31;4.54;
62631;PMS5003;48703;51.248;-0.546;2022-10-17T01:50:27;5.52;5.32;
62631;PMS5003;48703;51.248;-0.546;2022-10-17T01:53:27;5.21;4.40;
62631;PMS5003;48703;51.248;-0.546;2022-10-17T01:56:29;5.83;4.54;
62631;PMS5003;48703;51.248;-0.546;2022-10-17T01:59:30;5.63;4.76;
62631;PMS5003;48703;51.248;-0.546;2022-10-17T02:02:31;4.01;3.86;
62631;PMS5003;48703;51.248;-0.546;2022-10-17T02:05:34;4.26;3.96;
62631;PMS5003;48703;51.248;-0.546;2022-10-17T02:08:40;4.91;3.73;
62631;PMS5003;48703;51.248;-0.546;2022-10-17T02:11:35;4.53;4.53;
62631;PMS5003;48703;51.248;-0.546;2022-10-17T02:14:40;5.34;4.46;
62631;PMS5003;48703;51.248;-0.546;2022-10-17T02:17:41;5.50;4.69;
62631;PMS5003;48703;51.248;-0.546;2022-10-17T02:20:42;4.96;4.54;
62631;PMS5003;48703;51.248;-0.546;2022-10-17T02:23:44;5.67;4.46;
62631;PMS5003;48703;51.248;-0.546;2022-10-17T02:26:43;6.13;4.56;
62631;PMS5003;48703;51.248;-0.546;2022-10-17T02:29:46;4.73;3.66;
62631;PMS5003;48703;51.248;-0.546;2022-10-17T02:32:46;4.63;4.30;
62631;PMS5003;48703;51.248;-0.546;2022-10-17T02:35:48;5.58;4.32;
62631;PMS5003;48703;51.248;-0.546;2022-10-17T02:38:48;4.67;4.46;
62631;PMS5003;48703;51.248;-0.546;2022-10-17T02:41:50;5.61;4.67;
62631;PMS5003;48703;51.248;-0.546;2022-10-17T02:44:51;4.86;4.09;
62631;PMS5003;48703;51.248;-0.546;2022-10-17T02:47:54;7.91;5.21;
62631;PMS5003;48703;51.248;-0.546;2022-10-17T02:50:56;4.51;4.21;
62631;PMS5003;48703;51.248;-0.546;2022-10-17T02:53:57;4.57;3.96;
62631;PMS5003;48703;51.248;-0.546;2022-10-17T02:56:58;3.69;3.03;
62631;PMS5003;48703;51.248;-0.546;2022-10-17T03:00:00;5.50;4.04;
62631;PMS5003;48703;51.248;-0.546;2022-10-17T03:03:00;5.24;5.24;
62631;PMS5003;48703;51.248;-0.546;2022-10-17T03:06:01;5.09;4.49;
62631;PMS5003;48703;51.248;-0.546;2022-10-17T03:09:03;5.31;4.03;
62631;PMS5003;48703;51.248;-0.546;2022-10-17T03:12:05;4.77;4.14;
62631;PMS5003;48703;51.248;-0.546;2022-10-17T03:15:07;4.94;4.94;
62631;PMS5003;48703;51.248;-0.546;2022-10-17T03:18:08;3.99;3.71;
62631;PMS5003;48703;51.248;-0.546;2022-10-17T03:21:09;5.01;4.79;
62631;PMS5003;48703;51.248;-0.546;2022-10-17T03:24:11;6.03;4.13;
62631;PMS5003;48703;51.248;-0.546;2022-10-17T03:27:12;3.91;3.13;
62631;PMS5003;48703;51.248;-0.546;2022-10-17T03:30:13;6.97;5.96;
62631;PMS5003;48703;51.248;-0.546;2022-10-17T03:33:15;4.40;3.46;
62631;PMS5003;48703;51.248;-0.546;2022-10-17T03:36:17;4.97;4.23;
62631;PMS5003;48703;51.248;-0.546;2022-10-17T03:39:18;4.17;2.80;
62631;PMS5003;48703;51.248;-0.546;2022-10-17T03:42:19;3.90;3.90;
62631;PMS5003;48703;51.248;-0.546;2022-10-17T03:45:21;4.61;3.89;
62631;PMS5003;48703;51.248;-0.546;2022-10-17T03:48:23;3.47;3.00;
62631;PMS5003;48703;51.248;-0.546;2022-10-17T03:51:24;2.41;2.41;
62631;PMS5003;48703;51.248;-0.546;2022-10-17T03:54:26;2.76;2.03;
62631;PMS5003;48703;51.248;-0.546;2022-10-17T03:57:27;2.83;2.47;
62631;PMS5003;48703;51.248;-0.546;2022-10-17T04:00:29;2.39;2.00;
62631;PMS5003;48703;51.248;-0.546;2022-10-17T04:03:30;2.84;1.69;
62631;PMS5003;48703;51.248;-0.546;2022-10-17T04:06:31;4.01;3.04;
62631;PMS5003;48703;51.248;-0.546;2022-10-17T04:09:33;2.49;2.41;
62631;PMS5003;48703;51.248;-0.546;2022-10-17T04:12:35;3.17;2.63;
62631;PMS5003;48703;51.248;-0.546;2022-10-17T04:15:36;1.99;1.63;
62631;PMS5003;48703;51.248;-0.546;2022-10-17T04:18:38;1.94;1.64;
62631;PMS5003;48703;51.248;-0.546;2022-10-17T04:21:39;3.61;2.26;
62631;PMS5003;48703;51.248;-0.546;2022-10-17T04:24:41;2.29;2.17;
62631;PMS5003;48703;51.248;-0.546;2022-10-17T04:27:42;3.16;2.67;
62631;PMS5003;48703;51.248;-0.546;2022-10-17T04:30:44;2.19;2.19;
62631;PMS5003;48703;51.248;-0.546;2022-10-17T04:33:45;3.26;1.97;
62631;PMS5003;48703;51.248;-0.546;2022-10-17T04:36:47;4.10;3.16;
62631;PMS5003;48703;51.248;-0.546;2022-10-17T04:39:48;2.66;1.43;
62631;PMS5003;48703;51.248;-0.546;2022-10-17T04:42:49;2.14;2.14;
62631;PMS5003;48703;51.248;-0.546;2022-10-17T04:45:51;4.64;3.17;
62631;PMS5003;48703;51.248;-0.546;2022-10-17T04:48:52;3.21;1.89;
62631;PMS5003;48703;51.248;-0.546;2022-10-17T04:51:53;2.10;2.10;
62631;PMS5003;48703;51.248;-0.546;2022-10-17T04:54:55;3.07;2.90;
62631;PMS5003;48703;51.248;-0.546;2022-10-17T04:57:56;3.44;2.20;
62631;PMS5003;48703;51.248;-0.546;2022-10-17T05:00:58;2.81;2.34;
62631;PMS5003;48703;51.248;-0.546;2022-10-17T05:03:59;1.70;1.70;
62631;PMS5003;48703;51.248;-0.546;2022-10-17T05:07:01;2.81;2.20;
62631;PMS5003;48703;51.248;-0.546;2022-10-17T05:10:02;4.44;3.67;
62631;PMS5003;48703;51.248;-0.546;2022-10-17T05:13:04;5.51;4.74;
62631;PMS5003;48703;51.248;-0.546;2022-10-17T05:16:05;4.24;3.50;
62631;PMS5003;48703;51.248;-0.546;2022-10-17T05:19:06;4.61;3.56;
62631;PMS5003;48703;51.248;-0.546;2022-10-17T05:22:08;4.20;3.53;
62631;PMS5003;48703;51.248;-0.546;2022-10-17T05:25:09;3.47;2.43;
62631;PMS5003;48703;51.248;-0.546;2022-10-17T05:28:11;3.39;3.13;
62631;PMS5003;48703;51.248;-0.546;2022-10-17T05:31:12;2.24;2.24;
62631;PMS5003;48703;51.248;-0.546;2022-10-17T05:34:14;2.34;1.91;
62631;PMS5003;48703;51.248;-0.546;2022-10-17T05:37:15;2.34;2.34;
62631;PMS5003;48703;51.248;-0.546;2022-10-17T05:40:17;2.04;1.99;
62631;PMS5003;48703;51.248;-0.546;2022-10-17T05:43:18;3.74;2.11;
62631;PMS5003;48703;51.248;-0.546;2022-10-17T05:46:20;2.04;1.91;
62631;PMS5003;48703;51.248;-0.546;2022-10-17T05:49:21;3.66;2.54;
62631;PMS5003;48703;51.248;-0.546;2022-10-17T05:52:22;3.37;2.50;
62631;PMS5003;48703;51.248;-0.546;2022-10-17T05:55:24;2.20;1.71;
62631;PMS5003;48703;51.248;-0.546;2022-10-17T05:58:25;3.67;2.68;
62631;PMS5003;48703;51.248;-0.546;2022-10-17T06:01:27;1.79;0.94;
62631;PMS5003;48703;51.248;-0.546;2022-10-17T06:04:28;2.64;2.03;
62631;PMS5003;48703;51.248;-0.546;2022-10-17T06:07:29;3.16;1.74;
62631;PMS5003;48703;51.248;-0.546;2022-10-17T06:10:31;2.10;1.67;
62631;PMS5003;48703;51.248;-0.546;2022-10-17T06:13:33;1.41;1.16;
62631;PMS5003;48703;51.248;-0.546;2022-10-17T06:16:34;1.34;0.91;
62631;PMS5003;48703;51.248;-0.546;2022-10-17T06:19:35;2.44;1.59;
62631;PMS5003;48703;51.248;-0.546;2022-10-17T06:22:37;1.47;1.47;
62631;PMS5003;48703;51.248;-0.546;2022-10-17T06:25:39;2.39;1.77;
62631;PMS5003;48703;51.248;-0.546;2022-10-17T06:28:40;2.01;1.46;
62631;PMS5003;48703;51.248;-0.546;2022-10-17T06:31:41;3.19;2.11;
62631;PMS5003;48703;51.248;-0.546;2022-10-17T06:34:43;1.19;1.19;
62631;PMS5003;48703;51.248;-0.546;2022-10-17T06:37:44;1.93;1.27;
62631;PMS5003;48703;51.248;-0.546;2022-10-17T06:40:46;0.94;0.93;
62631;PMS5003;48703;51.248;-0.546;2022-10-17T06:43:47;1.53;1.49;
62631;PMS5003;48703;51.248;-0.546;2022-10-17T06:46:49;2.26;1.64;
62631;PMS5003;48703;51.248;-0.546;2022-10-17T06:49:50;0.61;0.61;
62631;PMS5003;48703;51.248;-0.546;2022-10-17T06:52:51;1.14;0.89;
62631;PMS5003;48703;51.248;-0.546;2022-10-17T06:55:53;1.91;1.26;
62631;PMS5003;48703;51.248;-0.546;2022-10-17T06:58:54;1.49;1.49;
62631;PMS5003;48703;51.248;-0.546;2022-10-17T07:01:56;2.60;2.60;
62631;PMS5003;48703;51.248;-0.546;2022-10-17T07:04:57;0.77;0.63;
62631;PMS5003;48703;51.248;-0.546;2022-10-17T07:07:59;2.20;2.17;
62631;PMS5003;48703;51.248;-0.546;2022-10-17T07:11:07;2.34;2.27;
62631;PMS5003;48703;51.248;-0.546;2022-10-17T07:14:01;4.50;3.11;
62631;PMS5003;48703;51.248;-0.546;2022-10-17T07:17:03;2.40;1.77;
62631;PMS5003;48703;51.248;-0.546;2022-10-17T07:20:05;2.24;1.91;
62631;PMS5003;48703;51.248;-0.546;2022-10-17T07:23:06;2.27;1.49;
62631;PMS5003;48703;51.248;-0.546;2022-10-17T07:26:08;1.86;1.56;
62631;PMS5003;48703;51.248;-0.546;2022-10-17T07:29:09;1.37;1.37;
62631;PMS5003;48703;51.248;-0.546;2022-10-17T07:32:10;3.17;1.09;
62631;PMS5003;48703;51.248;-0.546;2022-10-17T07:35:12;1.79;1.79;
62631;PMS5003;48703;51.248;-0.546;2022-10-17T07:38:13;1.66;1.59;
62631;PMS5003;48703;51.248;-0.546;2022-10-17T07:41:15;3.03;2.46;
62631;PMS5003;48703;51.248;-0.546;2022-10-17T07:44:16;3.13;2.49;
62631;PMS5003;48703;51.248;-0.546;2022-10-17T07:47:18;2.46;2.46;
62631;PMS5003;48703;51.248;-0.546;2022-10-17T07:50:19;3.64;2.37;
62631;PMS5003;48703;51.248;-0.546;2022-10-17T07:53:21;3.03;2.66;
62631;PMS5003;48703;51.248;-0.546;2022-10-17T07:56:22;2.49;2.16;
62631;PMS5003;48703;51.248;-0.546;2022-10-17T07:59:24;2.96;2.39;
62631;PMS5003;48703;51.248;-0.546;2022-10-17T08:02:26;2.44;1.63;
62631;PMS5003;48703;51.248;-0.546;2022-10-17T08:05:27;2.86;2.21;
62631;PMS5003;48703;51.248;-0.546;2022-10-17T08:08:28;3.04;2.20;
62631;PMS5003;48703;51.248;-0.546;2022-10-17T08:11:30;3.00;1.99;
62631;PMS5003;48703;51.248;-0.546;2022-10-17T08:14:31;4.21;3.29;
62631;PMS5003;48703;51.248;-0.546;2022-10-17T08:17:33;2.89;2.73;
62631;PMS5003;48703;51.248;-0.546;2022-10-17T08:20:34;4.07;2.59;
62631;PMS5003;48703;51.248;-0.546;2022-10-17T08:23:35;2.57;2.10;
62631;PMS5003;48703;51.248;-0.546;2022-10-17T08:26:37;5.09;3.84;
62631;PMS5003;48703;51.248;-0.546;2022-10-17T08:29:38;4.54;3.67;
62631;PMS5003;48703;51.248;-0.546;2022-10-17T08:32:40;2.93;2.74;
62631;PMS5003;48703;51.248;-0.546;2022-10-17T08:35:40;2.63;2.39;
62631;PMS5003;48703;51.248;-0.546;2022-10-17T08:38:42;4.60;3.57;
62631;PMS5003;48703;51.248;-0.546;2022-10-17T08:41:48;3.69;2.87;
62631;PMS5003;48703;51.248;-0.546;2022-10-17T08:44:47;5.34;3.96;
62631;PMS5003;48703;51.248;-0.546;2022-10-17T08:47:48;3.73;3.63;
62631;PMS5003;48703;51.248;-0.546;2022-10-17T08:50:48;4.77;3.79;
62631;PMS5003;48703;51.248;-0.546;2022-10-17T08:53:50;3.97;3.36;
62631;PMS5003;48703;51.248;-0.546;2022-10-17T08:56:52;4.29;3.09;
62631;PMS5003;48703;51.248;-0.546;2022-10-17T08:59:52;4.84;4.29;
62631;PMS5003;48703;51.248;-0.546;2022-10-17T09:02:56;4.01;3.10;
62631;PMS5003;48703;51.248;-0.546;2022-10-17T09:05:55;3.76;3.11;
62631;PMS5003;48703;51.248;-0.546;2022-10-17T09:09:00;3.13;3.13;
62631;PMS5003;48703;51.248;-0.546;2022-10-17T09:12:01;5.49;3.27;
62631;PMS5003;48703;51.248;-0.546;2022-10-17T09:15:02;4.03;3.51;
62631;PMS5003;48703;51.248;-0.546;2022-10-17T09:18:01;5.41;3.33;
62631;PMS5003;48703;51.248;-0.546;2022-10-17T09:21:04;4.50;3.86;
62631;PMS5003;48703;51.248;-0.546;2022-10-17T09:24:04;6.03;4.23;
62631;PMS5003;48703;51.248;-0.546;2022-10-17T09:27:05;4.24;2.99;
62631;PMS5003;48703;51.248;-0.546;2022-10-17T09:30:24;5.47;3.53;
62631;PMS5003;48703;51.248;-0.546;2022-10-17T09:33:09;4.69;3.37;
62631;PMS5003;48703;51.248;-0.546;2022-10-17T09:36:09;4.91;3.01;
62631;PMS5003;48703;51.248;-0.546;2022-10-17T09:39:11;5.03;3.01;
62631;PMS5003;48703;51.248;-0.546;2022-10-17T09:42:12;4.59;3.57;
62631;PMS5003;48703;51.248;-0.546;2022-10-17T09:45:15;4.00;3.01;
62631;PMS5003;48703;51.248;-0.546;2022-10-17T09:48:17;5.21;3.74;
62631;PMS5003;48703;51.248;-0.546;2022-10-17T09:51:16;4.34;3.30;
62631;PMS5003;48703;51.248;-0.546;2022-10-17T09:54:19;3.03;2.17;
62631;PMS5003;48703;51.248;-0.546;2022-10-17T09:57:19;4.64;3.90;
62631;PMS5003;48703;51.248;-0.546;2022-10-17T10:00:21;5.41;4.63;
62631;PMS5003;48703;51.248;-0.546;2022-10-17T10:03:22;5.37;3.81;
62631;PMS5003;48703;51.248;-0.546;2022-10-17T10:06:23;13.77;9.67;
62631;PMS5003;48703;51.248;-0.546;2022-10-17T10:09:26;12.27;9.74;
62631;PMS5003;48703;51.248;-0.546;2022-10-17T10:12:26;7.45;6.19;
62631;PMS5003;48703;51.248;-0.546;2022-10-17T10:15:30;3.39;3.06;
62631;PMS5003;48703;51.248;-0.546;2022-10-17T10:18:30;3.86;1.87;
62631;PMS5003;48703;51.248;-0.546;2022-10-17T10:21:30;3.29;2.21;
62631;PMS5003;48703;51.248;-0.546;2022-10-17T10:24:31;3.91;3.14;
62631;PMS5003;48703;51.248;-0.546;2022-10-17T10:27:33;4.71;3.34;
62631;PMS5003;48703;51.248;-0.546;2022-10-17T10:30:34;2.16;1.90;
62631;PMS5003;48703;51.248;-0.546;2022-10-17T10:33:41;3.24;2.81;
62631;PMS5003;48703;51.248;-0.546;2022-10-17T10:37:15;3.73;2.77;
62631;PMS5003;48703;51.248;-0.546;2022-10-17T10:39:40;3.23;2.66;
62631;PMS5003;48703;51.248;-0.546;2022-10-17T10:42:40;3.03;2.39;
62631;PMS5003;48703;51.248;-0.546;2022-10-17T10:45:42;4.93;3.70;
62631;PMS5003;48703;51.248;-0.546;2022-10-17T10:48:49;3.41;2.70;
62631;PMS5003;48703;51.248;-0.546;2022-10-17T10:51:45;3.53;1.99;
62631;PMS5003;48703;51.248;-0.546;2022-10-17T10:54:49;4.13;2.56;
62631;PMS5003;48703;51.248;-0.546;2022-10-17T10:57:48;3.34;3.04;
62631;PMS5003;48703;51.248;-0.546;2022-10-17T11:00:49;3.00;2.19;
62631;PMS5003;48703;51.248;-0.546;2022-10-17T11:03:53;3.20;1.90;
62631;PMS5003;48703;51.248;-0.546;2022-10-17T11:06:52;2.53;1.80;
62631;PMS5003;48703;51.248;-0.546;2022-10-17T11:10:02;3.54;2.64;
62631;PMS5003;48703;51.248;-0.546;2022-10-17T11:12:56;2.61;2.24;
62631;PMS5003;48703;51.248;-0.546;2022-10-17T11:15:57;3.77;2.03;
62631;PMS5003;48703;51.248;-0.546;2022-10-17T11:18:58;4.60;1.90;
62631;PMS5003;48703;51.248;-0.546;2022-10-17T11:22:01;4.74;2.10;
62631;PMS5003;48703;51.248;-0.546;2022-10-17T11:25:03;3.09;2.23;
62631;PMS5003;48703;51.248;-0.546;2022-10-17T11:28:02;4.27;2.17;
62631;PMS5003;48703;51.248;-0.546;2022-10-17T11:31:04;2.91;2.14;
62631;PMS5003;48703;51.248;-0.546;2022-10-17T11:34:05;4.03;2.79;
62631;PMS5003;48703;51.248;-0.546;2022-10-17T11:37:11;3.36;2.54;
62631;PMS5003;48703;51.248;-0.546;2022-10-17T11:40:13;4.31;2.74;
62631;PMS5003;48703;51.248;-0.546;2022-10-17T11:43:09;3.50;2.74;
62631;PMS5003;48703;51.248;-0.546;2022-10-17T11:46:11;3.49;1.99;
62631;PMS5003;48703;51.248;-0.546;2022-10-17T11:49:12;3.11;2.43;
62631;PMS5003;48703;51.248;-0.546;2022-10-17T11:52:18;3.26;2.53;
62631;PMS5003;48703;51.248;-0.546;2022-10-17T11:55:15;2.90;1.74;
62631;PMS5003;48703;51.248;-0.546;2022-10-17T11:58:21;2.53;1.84;
62631;PMS5003;48703;51.248;-0.546;2022-10-17T12:01:20;2.91;1.63;
62631;PMS5003;48703;51.248;-0.546;2022-10-17T12:04:21;3.93;3.01;
62631;PMS5003;48703;51.248;-0.546;2022-10-17T12:07:22;2.74;1.67;
62631;PMS5003;48703;51.248;-0.546;2022-10-17T12:10:27;4.39;3.53;
62631;PMS5003;48703;51.248;-0.546;2022-10-17T12:13:55;3.44;3.17;
62631;PMS5003;48703;51.248;-0.546;2022-10-17T12:19:27;3.73;3.73;
62631;PMS5003;48703;51.248;-0.546;2022-10-17T12:22:28;4.99;4.24;
62631;PMS5003;48703;51.248;-0.546;2022-10-17T12:25:29;5.61;5.10;
62631;PMS5003;48703;51.248;-0.546;2022-10-17T12:28:30;4.93;3.84;
62631;PMS5003;48703;51.248;-0.546;2022-10-17T12:31:31;5.23;4.44;
62631;PMS5003;48703;51.248;-0.546;2022-10-17T12:34:32;6.65;4.86;
62631;PMS5003;48703;51.248;-0.546;2022-10-17T12:38:38;4.23;3.53;
62631;PMS5003;48703;51.248;-0.546;2022-10-17T12:40:47;5.96;4.74;
62631;PMS5003;48703;51.248;-0.546;2022-10-17T12:43:45;4.19;3.86;
62631;PMS5003;48703;51.248;-0.546;2022-10-17T12:46:41;6.11;5.36;
62631;PMS5003;48703;51.248;-0.546;2022-10-17T12:49:48;5.24;4.26;
62631;PMS5003;48703;51.248;-0.546;2022-10-17T12:52:59;5.54;3.80;
62631;PMS5003;48703;51.248;-0.546;2022-10-17T12:55:42;7.39;6.14;
62631;PMS5003;48703;51.248;-0.546;2022-10-17T12:58:44;8.53;6.00;
62631;PMS5003;48703;51.248;-0.546;2022-10-17T13:01:46;6.50;5.26;
62631;PMS5003;48703;51.248;-0.546;2022-10-17T13:04:47;6.09;4.84;
62631;PMS5003;48703;51.248;-0.546;2022-10-17T13:07:48;3.83;3.83;
62631;PMS5003;48703;51.248;-0.546;2022-10-17T13:10:50;4.23;4.10;
62631;PMS5003;48703;51.248;-0.546;2022-10-17T13:13:51;4.04;2.84;
62631;PMS5003;48703;51.248;-0.546;2022-10-17T13:16:53;3.77;2.84;
62631;PMS5003;48703;51.248;-0.546;2022-10-17T13:19:54;6.26;4.23;
62631;PMS5003;48703;51.248;-0.546;2022-10-17T13:22:55;5.24;4.20;
62631;PMS5003;48703;51.248;-0.546;2022-10-17T13:26:13;5.07;2.60;
62631;PMS5003;48703;51.248;-0.546;2022-10-17T13:29:01;2.01;1.69;
62631;PMS5003;48703;51.248;-0.546;2022-10-17T13:31:59;4.07;3.07;
62631;PMS5003;48703;51.248;-0.546;2022-10-17T13:35:04;3.69;2.74;
62631;PMS5003;48703;51.248;-0.546;2022-10-17T13:38:03;5.91;3.57;
62631;PMS5003;48703;51.248;-0.546;2022-10-17T13:41:03;3.94;2.74;
62631;PMS5003;48703;51.248;-0.546;2022-10-17T13:44:08;3.81;3.81;
62631;PMS5003;48703;51.248;-0.546;2022-10-17T13:47:17;5.70;4.04;
62631;PMS5003;48703;51.248;-0.546;2022-10-17T13:50:12;3.00;2.69;
62631;PMS5003;48703;51.248;-0.546;2022-10-17T13:53:30;4.31;3.64;
62631;PMS5003;48703;51.248;-0.546;2022-10-17T13:56:16;4.80;3.46;
62631;PMS5003;48703;51.248;-0.546;2022-10-17T13:59:17;3.59;2.39;
62631;PMS5003;48703;51.248;-0.546;2022-10-17T14:02:14;5.06;2.73;
62631;PMS5003;48703;51.248;-0.546;2022-10-17T14:05:16;3.66;2.76;
62631;PMS5003;48703;51.248;-0.546;2022-10-17T14:08:16;5.91;4.03;
62631;PMS5003;48703;51.248;-0.546;2022-10-17T14:11:21;3.07;2.63;
62631;PMS5003;48703;51.248;-0.546;2022-10-17T14:14:19;5.53;3.03;
62631;PMS5003;48703;51.248;-0.546;2022-10-17T14:17:21;7.00;6.11;
62631;PMS5003;48703;51.248;-0.546;2022-10-17T14:20:21;4.80;3.57;
62631;PMS5003;48703;51.248;-0.546;2022-10-17T14:23:29;2.33;2.33;
62631;PMS5003;48703;51.248;-0.546;2022-10-17T14:26:24;1.49;1.49;
62631;PMS5003;48703;51.248;-0.546;2022-10-17T14:29:26;1.33;0.66;
62631;PMS5003;48703;51.248;-0.546;2022-10-17T14:32:27;1.79;0.49;
62631;PMS5003;48703;51.248;-0.546;2022-10-17T14:35:29;1.79;1.66;
62631;PMS5003;48703;51.248;-0.546;2022-10-17T14:38:30;2.39;1.36;
62631;PMS5003;48703;51.248;-0.546;2022-10-17T14:41:32;2.47;1.36;
62631;PMS5003;48703;51.248;-0.546;2022-10-17T14:44:33;0.56;0.56;
62631;PMS5003;48703;51.248;-0.546;2022-10-17T14:47:34;1.73;1.47;
62631;PMS5003;48703;51.248;-0.546;2022-10-17T14:50:36;2.47;1.41;
62631;PMS5003;48703;51.248;-0.546;2022-10-17T14:53:38;3.01;1.21;
62631;PMS5003;48703;51.248;-0.546;2022-10-17T14:56:40;2.00;1.44;
62631;PMS5003;48703;51.248;-0.546;2022-10-17T14:59:40;1.94;1.34;
62631;PMS5003;48703;51.248;-0.546;2022-10-17T15:02:42;4.57;2.70;
62631;PMS5003;48703;51.248;-0.546;2022-10-17T15:05:43;4.63;3.10;
62631;PMS5003;48703;51.248;-0.546;2022-10-17T15:08:45;2.40;2.40;
62631;PMS5003;48703;51.248;-0.546;2022-10-17T15:11:46;6.99;4.03;
62631;PMS5003;48703;51.248;-0.546;2022-10-17T15:14:48;5.03;4.03;
62631;PMS5003;48703;51.248;-0.546;2022-10-17T15:17:49;7.49;6.11;
62631;PMS5003;48703;51.248;-0.546;2022-10-17T15:20:50;7.33;5.46;
62631;PMS5003;48703;51.248;-0.546;2022-10-17T15:23:52;4.39;3.99;
62631;PMS5003;48703;51.248;-0.546;2022-10-17T15:26:53;4.09;3.57;
62631;PMS5003;48703;51.248;-0.546;2022-10-17T15:29:54;4.67;4.11;
62631;PMS5003;48703;51.248;-0.546;2022-10-17T15:32:55;5.27;4.10;
62631;PMS5003;48703;51.248;-0.546;2022-10-17T15:35:57;2.79;2.13;
62631;PMS5003;48703;51.248;-0.546;2022-10-17T15:38:59;6.16;4.30;
62631;PMS5003;48703;51.248;-0.546;2022-10-17T15:41:59;3.53;2.21;
62631;PMS5003;48703;51.248;-0.546;2022-10-17T15:45:01;1.91;1.79;
62631;PMS5003;48703;51.248;-0.546;2022-10-17T15:48:03;4.34;3.33;
62631;PMS5003;48703;51.248;-0.546;2022-10-17T15:51:03;2.19;1.60;
62631;PMS5003;48703;51.248;-0.546;2022-10-17T15:54:05;1.89;1.11;
62631;PMS5003;48703;51.248;-0.546;2022-10-17T15:57:07;4.64;3.57;
62631;PMS5003;48703;51.248;-0.546;2022-10-17T16:00:12;2.97;2.49;
62631;PMS5003;48703;51.248;-0.546;2022-10-17T16:03:09;2.89;1.87;
62631;PMS5003;48703;51.248;-0.546;2022-10-17T16:06:11;3.14;2.10;
62631;PMS5003;48703;51.248;-0.546;2022-10-17T16:09:12;3.63;1.60;
62631;PMS5003;48703;51.248;-0.546;2022-10-17T16:12:15;1.07;0.93;
62631;PMS5003;48703;51.248;-0.546;2022-10-17T16:15:16;3.00;2.60;
62631;PMS5003;48703;51.248;-0.546;2022-10-17T16:18:17;1.86;1.60;
62631;PMS5003;48703;51.248;-0.546;2022-10-17T16:21:19;3.59;1.93;
62631;PMS5003;48703;51.248;-0.546;2022-10-17T16:24:19;2.56;2.27;
62631;PMS5003;48703;51.248;-0.546;2022-10-17T16:27:21;2.63;2.06;
62631;PMS5003;48703;51.248;-0.546;2022-10-17T16:30:25;3.03;2.56;
62631;PMS5003;48703;51.248;-0.546;2022-10-17T16:33:24;9.90;8.54;
62631;PMS5003;48703;51.248;-0.546;2022-10-17T16:36:26;16.17;14.44;
62631;PMS5003;48703;51.248;-0.546;2022-10-17T16:39:26;15.62;13.74;
62631;PMS5003;48703;51.248;-0.546;2022-10-17T16:42:28;7.10;6.20;
62631;PMS5003;48703;51.248;-0.546;2022-10-17T16:45:29;6.40;4.04;
62631;PMS5003;48703;51.248;-0.546;2022-10-17T16:48:30;3.09;2.40;
62631;PMS5003;48703;51.248;-0.546;2022-10-17T16:51:32;3.50;3.07;
62631;PMS5003;48703;51.248;-0.546;2022-10-17T16:54:33;2.56;1.99;
62631;PMS5003;48703;51.248;-0.546;2022-10-17T16:57:35;1.41;0.90;
62631;PMS5003;48703;51.248;-0.546;2022-10-17T17:00:37;1.86;1.86;
62631;PMS5003;48703;51.248;-0.546;2022-10-17T17:03:38;4.03;3.36;
62631;PMS5003;48703;51.248;-0.546;2022-10-17T17:06:39;3.87;3.27;
62631;PMS5003;48703;51.248;-0.546;2022-10-17T17:09:40;2.71;2.29;
62631;PMS5003;48703;51.248;-0.546;2022-10-17T17:12:42;3.17;2.56;
62631;PMS5003;48703;51.248;-0.546;2022-10-17T17:15:43;2.70;2.70;
62631;PMS5003;48703;51.248;-0.546;2022-10-17T17:18:45;2.61;1.89;
62631;PMS5003;48703;51.248;-0.546;2022-10-17T17:21:46;1.74;1.51;
62631;PMS5003;48703;51.248;-0.546;2022-10-17T17:24:48;3.37;2.93;
62631;PMS5003;48703;51.248;-0.546;2022-10-17T17:27:49;5.20;4.56;
62631;PMS5003;48703;51.248;-0.546;2022-10-17T17:30:50;12.12;11.16;
62631;PMS5003;48703;51.248;-0.546;2022-10-17T17:33:52;14.54;14.16;
62631;PMS5003;48703;51.248;-0.546;2022-10-17T17:36:53;14.56;13.10;
62631;PMS5003;48703;51.248;-0.546;2022-10-17T17:39:55;9.23;9.23;
62631;PMS5003;48703;51.248;-0.546;2022-10-17T17:42:57;10.93;9.86;
62631;PMS5003;48703;51.248;-0.546;2022-10-17T17:45:59;15.31;14.70;
62631;PMS5003;48703;51.248;-0.546;2022-10-17T17:48:59;14.29;13.47;
62631;PMS5003;48703;51.248;-0.546;2022-10-17T17:52:01;11.21;10.49;
62631;PMS5003;48703;51.248;-0.546;2022-10-17T17:55:03;4.71;4.36;
62631;PMS5003;48703;51.248;-0.546;2022-10-17T17:58:04;3.56;3.56;
62631;PMS5003;48703;51.248;-0.546;2022-10-17T18:01:07;4.09;3.03;
62631;PMS5003;48703;51.248;-0.546;2022-10-17T18:04:07;4.01;2.93;
62631;PMS5003;48703;51.248;-0.546;2022-10-17T18:07:08;3.36;2.81;
62631;PMS5003;48703;51.248;-0.546;2022-10-17T18:10:10;2.87;2.84;
62631;PMS5003;48703;51.248;-0.546;2022-10-17T18:13:11;4.79;4.17;
62631;PMS5003;48703;51.248;-0.546;2022-10-17T18:16:12;5.66;5.14;
62631;PMS5003;48703;51.248;-0.546;2022-10-17T18:19:14;5.04;4.83;
62631;PMS5003;48703;51.248;-0.546;2022-10-17T18:22:15;6.29;5.09;
62631;PMS5003;48703;51.248;-0.546;2022-10-17T18:25:17;4.10;3.66;
62631;PMS5003;48703;51.248;-0.546;2022-10-17T18:28:19;3.84;2.97;
62631;PMS5003;48703;51.248;-0.546;2022-10-17T18:31:21;3.87;3.19;
62631;PMS5003;48703;51.248;-0.546;2022-10-17T18:34:21;3.19;3.09;